sensor_id;sensor_type;location;lat;lon;timestamp;temperature;humidity
20091;DHT22;10205;49.678;6.560;2022-12-26T00:01:06;15.50;69.40
20091;DHT22;10205;49.678;6.560;2022-12-26T00:03:35;15.50;69.40
20091;DHT22;10205;49.678;6.560;2022-12-26T00:06:10;15.50;69.60
20091;DHT22;10205;49.678;6.560;2022-12-26T00:08:39;15.50;69.50
20091;DHT22;10205;49.678;6.560;2022-12-26T00:11:07;15.50;69.40
20091;DHT22;10205;49.678;6.560;2022-12-26T00:13:35;15.50;69.50
20091;DHT22;10205;49.678;6.560;2022-12-26T00:16:05;15.50;69.50
20091;DHT22;10205;49.678;6.560;2022-12-26T00:18:33;15.50;69.60
20091;DHT22;10205;49.678;6.560;2022-12-26T00:21:00;15.50;69.50
20091;DHT22;10205;49.678;6.560;2022-12-26T00:23:27;15.50;69.50
20091;DHT22;10205;49.678;6.560;2022-12-26T00:25:54;15.50;69.60
20091;DHT22;10205;49.678;6.560;2022-12-26T00:28:25;15.50;69.60
20091;DHT22;10205;49.678;6.560;2022-12-26T00:30:52;15.50;69.60
20091;DHT22;10205;49.678;6.560;2022-12-26T00:33:19;15.50;70.50
20091;DHT22;10205;49.678;6.560;2022-12-26T00:35:46;15.50;69.60
20091;DHT22;10205;49.678;6.560;2022-12-26T00:38:14;15.50;69.60
20091;DHT22;10205;49.678;6.560;2022-12-26T00:40:41;15.50;69.70
20091;DHT22;10205;49.678;6.560;2022-12-26T00:43:12;15.50;69.70
20091;DHT22;10205;49.678;6.560;2022-12-26T00:45:46;15.50;69.50
20091;DHT22;10205;49.678;6.560;2022-12-26T00:48:14;15.50;69.50
20091;DHT22;10205;49.678;6.560;2022-12-26T00:50:41;15.50;69.50
20091;DHT22;10205;49.678;6.560;2022-12-26T00:53:08;15.50;69.40
20091;DHT22;10205;49.678;6.560;2022-12-26T00:55:35;15.50;69.50
20091;DHT22;10205;49.678;6.560;2022-12-26T00:58:03;15.50;69.50
20091;DHT22;10205;49.678;6.560;2022-12-26T01:00:30;15.50;69.50
20091;DHT22;10205;49.678;6.560;2022-12-26T01:02:59;15.50;69.50
20091;DHT22;10205;49.678;6.560;2022-12-26T01:05:26;15.50;69.60
20091;DHT22;10205;49.678;6.560;2022-12-26T01:07:54;15.40;69.30
20091;DHT22;10205;49.678;6.560;2022-12-26T01:10:21;15.40;69.20
20091;DHT22;10205;49.678;6.560;2022-12-26T01:12:48;15.40;69.20
20091;DHT22;10205;49.678;6.560;2022-12-26T01:15:16;15.40;69.30
20091;DHT22;10205;49.678;6.560;2022-12-26T01:17:43;15.40;69.50
20091;DHT22;10205;49.678;6.560;2022-12-26T01:20:12;15.40;70.20
20091;DHT22;10205;49.678;6.560;2022-12-26T01:22:39;15.40;69.60
20091;DHT22;10205;49.678;6.560;2022-12-26T01:25:07;15.40;69.60
20091;DHT22;10205;49.678;6.560;2022-12-26T01:27:36;15.40;69.60
20091;DHT22;10205;49.678;6.560;2022-12-26T01:30:04;15.50;69.60
20091;DHT22;10205;49.678;6.560;2022-12-26T01:32:33;15.40;69.60
20091;DHT22;10205;49.678;6.560;2022-12-26T01:35:00;15.40;69.40
20091;DHT22;10205;49.678;6.560;2022-12-26T01:37:29;15.40;70.40
20091;DHT22;10205;49.678;6.560;2022-12-26T01:39:56;15.50;69.40
20091;DHT22;10205;49.678;6.560;2022-12-26T01:42:33;15.50;69.50
20091;DHT22;10205;49.678;6.560;2022-12-26T01:45:05;15.50;69.50
20091;DHT22;10205;49.678;6.560;2022-12-26T01:47:46;15.40;69.40
20091;DHT22;10205;49.678;6.560;2022-12-26T01:50:25;15.40;69.20
20091;DHT22;10205;49.678;6.560;2022-12-26T01:53:00;15.50;69.50
20091;DHT22;10205;49.678;6.560;2022-12-26T01:55:32;15.50;69.40
20091;DHT22;10205;49.678;6.560;2022-12-26T01:58:03;15.50;69.50
20091;DHT22;10205;49.678;6.560;2022-12-26T02:00:36;15.50;69.40
20091;DHT22;10205;49.678;6.560;2022-12-26T02:03:06;15.50;69.50
20091;DHT22;10205;49.678;6.560;2022-12-26T02:05:54;15.50;69.40
20091;DHT22;10205;49.678;6.560;2022-12-26T02:08:28;15.50;70.30
20091;DHT22;10205;49.678;6.560;2022-12-26T02:11:03;15.50;69.40
20091;DHT22;10205;49.678;6.560;2022-12-26T02:13:37;15.50;69.50
20091;DHT22;10205;49.678;6.560;2022-12-26T02:16:07;15.50;69.40
20091;DHT22;10205;49.678;6.560;2022-12-26T02:18:36;15.50;69.20
20091;DHT22;10205;49.678;6.560;2022-12-26T02:21:15;15.50;69.30
20091;DHT22;10205;49.678;6.560;2022-12-26T02:24:29;15.50;69.40
20091;DHT22;10205;49.678;6.560;2022-12-26T02:27:34;15.50;69.20
20091;DHT22;10205;49.678;6.560;2022-12-26T02:30:39;15.50;69.10
20091;DHT22;10205;49.678;6.560;2022-12-26T02:33:27;15.50;68.90
20091;DHT22;10205;49.678;6.560;2022-12-26T02:36:20;15.50;69.20
20091;DHT22;10205;49.678;6.560;2022-12-26T02:39:16;15.50;69.20
20091;DHT22;10205;49.678;6.560;2022-12-26T02:42:04;15.50;69.30
20091;DHT22;10205;49.678;6.560;2022-12-26T02:44:42;15.50;69.20
20091;DHT22;10205;49.678;6.560;2022-12-26T02:47:36;15.50;69.10
20091;DHT22;10205;49.678;6.560;2022-12-26T02:50:16;15.50;69.10
20091;DHT22;10205;49.678;6.560;2022-12-26T02:53:11;15.50;69.20
20091;DHT22;10205;49.678;6.560;2022-12-26T02:56:08;15.50;69.20
20091;DHT22;10205;49.678;6.560;2022-12-26T02:59:00;15.50;69.20
20091;DHT22;10205;49.678;6.560;2022-12-26T03:01:50;15.50;69.40
20091;DHT22;10205;49.678;6.560;2022-12-26T03:04:43;15.50;69.30
20091;DHT22;10205;49.678;6.560;2022-12-26T03:07:34;15.50;69.30
20091;DHT22;10205;49.678;6.560;2022-12-26T03:10:24;15.40;69.20
20091;DHT22;10205;49.678;6.560;2022-12-26T03:13:16;15.50;69.40
20091;DHT22;10205;49.678;6.560;2022-12-26T03:15:51;15.40;69.40
20091;DHT22;10205;49.678;6.560;2022-12-26T03:18:42;15.40;69.30
20091;DHT22;10205;49.678;6.560;2022-12-26T03:21:16;15.40;69.30
20091;DHT22;10205;49.678;6.560;2022-12-26T03:23:47;15.40;69.40
20091;DHT22;10205;49.678;6.560;2022-12-26T03:26:23;15.40;69.40
20091;DHT22;10205;49.678;6.560;2022-12-26T03:29:04;15.40;69.40
20091;DHT22;10205;49.678;6.560;2022-12-26T03:31:52;15.40;69.40
20091;DHT22;10205;49.678;6.560;2022-12-26T03:34:20;15.40;69.60
20091;DHT22;10205;49.678;6.560;2022-12-26T03:37:08;15.40;69.60
20091;DHT22;10205;49.678;6.560;2022-12-26T03:40:07;15.40;69.70
20091;DHT22;10205;49.678;6.560;2022-12-26T03:43:07;15.40;69.70
20091;DHT22;10205;49.678;6.560;2022-12-26T03:46:04;15.40;69.60
20091;DHT22;10205;49.678;6.560;2022-12-26T03:49:06;15.40;69.60
20091;DHT22;10205;49.678;6.560;2022-12-26T03:52:00;15.40;70.50
20091;DHT22;10205;49.678;6.560;2022-12-26T03:54:53;15.40;69.70
20091;DHT22;10205;49.678;6.560;2022-12-26T03:57:48;15.40;69.60
20091;DHT22;10205;49.678;6.560;2022-12-26T04:00:40;15.40;69.70
20091;DHT22;10205;49.678;6.560;2022-12-26T04:03:27;15.40;69.80
20091;DHT22;10205;49.678;6.560;2022-12-26T04:06:18;15.40;69.70
20091;DHT22;10205;49.678;6.560;2022-12-26T04:09:10;15.40;69.80
20091;DHT22;10205;49.678;6.560;2022-12-26T04:11:57;15.40;69.80
20091;DHT22;10205;49.678;6.560;2022-12-26T04:14:48;15.40;69.80
20091;DHT22;10205;49.678;6.560;2022-12-26T04:17:39;15.40;69.80
20091;DHT22;10205;49.678;6.560;2022-12-26T04:20:35;15.40;69.70
20091;DHT22;10205;49.678;6.560;2022-12-26T04:23:21;15.40;69.70
20091;DHT22;10205;49.678;6.560;2022-12-26T04:26:18;15.40;69.70
20091;DHT22;10205;49.678;6.560;2022-12-26T04:29:06;15.40;69.90
20091;DHT22;10205;49.678;6.560;2022-12-26T04:31:59;15.40;69.70
20091;DHT22;10205;49.678;6.560;2022-12-26T04:34:52;15.40;69.60
20091;DHT22;10205;49.678;6.560;2022-12-26T04:37:42;15.40;69.80
20091;DHT22;10205;49.678;6.560;2022-12-26T04:40:31;15.40;69.70
20091;DHT22;10205;49.678;6.560;2022-12-26T04:43:21;15.40;69.80
20091;DHT22;10205;49.678;6.560;2022-12-26T04:46:07;15.40;69.70
20091;DHT22;10205;49.678;6.560;2022-12-26T04:48:41;15.40;69.70
20091;DHT22;10205;49.678;6.560;2022-12-26T04:51:27;15.40;69.80
20091;DHT22;10205;49.678;6.560;2022-12-26T04:53:55;15.40;69.90
20091;DHT22;10205;49.678;6.560;2022-12-26T04:56:22;15.40;69.90
20091;DHT22;10205;49.678;6.560;2022-12-26T04:58:50;15.40;70.00
20091;DHT22;10205;49.678;6.560;2022-12-26T05:01:21;15.30;69.70
20091;DHT22;10205;49.678;6.560;2022-12-26T05:04:05;15.40;69.90
20091;DHT22;10205;49.678;6.560;2022-12-26T05:06:51;15.40;69.80
20091;DHT22;10205;49.678;6.560;2022-12-26T05:09:36;15.40;69.80
20091;DHT22;10205;49.678;6.560;2022-12-26T05:12:06;15.40;69.70
20091;DHT22;10205;49.678;6.560;2022-12-26T05:14:36;15.40;69.70
20091;DHT22;10205;49.678;6.560;2022-12-26T05:17:03;15.40;69.60
20091;DHT22;10205;49.678;6.560;2022-12-26T05:19:49;15.40;69.80
20091;DHT22;10205;49.678;6.560;2022-12-26T05:22:38;15.40;69.70
20091;DHT22;10205;49.678;6.560;2022-12-26T05:25:26;15.40;69.60
20091;DHT22;10205;49.678;6.560;2022-12-26T05:28:14;15.40;69.70
20091;DHT22;10205;49.678;6.560;2022-12-26T05:31:01;15.40;69.70
20091;DHT22;10205;49.678;6.560;2022-12-26T05:33:28;15.40;69.60
20091;DHT22;10205;49.678;6.560;2022-12-26T05:36:15;15.40;69.60
20091;DHT22;10205;49.678;6.560;2022-12-26T05:38:44;15.40;69.60
20091;DHT22;10205;49.678;6.560;2022-12-26T05:41:12;15.40;69.80
20091;DHT22;10205;49.678;6.560;2022-12-26T05:43:39;15.40;69.80
20091;DHT22;10205;49.678;6.560;2022-12-26T05:46:08;15.40;69.90
20091;DHT22;10205;49.678;6.560;2022-12-26T05:48:35;15.40;70.00
20091;DHT22;10205;49.678;6.560;2022-12-26T05:51:03;15.40;70.10
20091;DHT22;10205;49.678;6.560;2022-12-26T05:53:31;15.40;70.10
20091;DHT22;10205;49.678;6.560;2022-12-26T05:56:02;15.40;70.20
20091;DHT22;10205;49.678;6.560;2022-12-26T05:58:30;15.40;70.20
20091;DHT22;10205;49.678;6.560;2022-12-26T06:01:05;15.40;70.40
20091;DHT22;10205;49.678;6.560;2022-12-26T06:03:36;15.40;70.70
20091;DHT22;10205;49.678;6.560;2022-12-26T06:06:05;15.40;70.70
20091;DHT22;10205;49.678;6.560;2022-12-26T06:08:32;15.40;70.70
20091;DHT22;10205;49.678;6.560;2022-12-26T06:11:04;15.40;70.90
20091;DHT22;10205;49.678;6.560;2022-12-26T06:13:32;15.40;70.90
20091;DHT22;10205;49.678;6.560;2022-12-26T06:16:03;15.40;70.70
20091;DHT22;10205;49.678;6.560;2022-12-26T06:18:34;15.40;70.90
20091;DHT22;10205;49.678;6.560;2022-12-26T06:21:04;15.40;70.90
20091;DHT22;10205;49.678;6.560;2022-12-26T06:23:32;15.30;71.00
20091;DHT22;10205;49.678;6.560;2022-12-26T06:26:00;15.40;71.90
20091;DHT22;10205;49.678;6.560;2022-12-26T06:28:27;15.40;71.30
20091;DHT22;10205;49.678;6.560;2022-12-26T06:31:01;15.40;71.30
20091;DHT22;10205;49.678;6.560;2022-12-26T06:33:29;15.30;71.50
20091;DHT22;10205;49.678;6.560;2022-12-26T06:36:03;15.30;71.40
20091;DHT22;10205;49.678;6.560;2022-12-26T06:38:31;15.30;71.50
20091;DHT22;10205;49.678;6.560;2022-12-26T06:40:58;15.30;71.50
20091;DHT22;10205;49.678;6.560;2022-12-26T06:43:26;15.30;71.50
20091;DHT22;10205;49.678;6.560;2022-12-26T06:45:54;15.30;71.70
20091;DHT22;10205;49.678;6.560;2022-12-26T06:48:25;15.20;71.70
20091;DHT22;10205;49.678;6.560;2022-12-26T06:50:52;15.20;71.80
20091;DHT22;10205;49.678;6.560;2022-12-26T06:53:22;15.20;71.90
20091;DHT22;10205;49.678;6.560;2022-12-26T06:55:51;15.20;71.90
20091;DHT22;10205;49.678;6.560;2022-12-26T06:58:18;15.20;72.10
20091;DHT22;10205;49.678;6.560;2022-12-26T07:00:45;15.20;72.10
20091;DHT22;10205;49.678;6.560;2022-12-26T07:03:12;15.10;72.10
20091;DHT22;10205;49.678;6.560;2022-12-26T07:05:39;15.10;72.00
20091;DHT22;10205;49.678;6.560;2022-12-26T07:08:06;15.10;72.10
20091;DHT22;10205;49.678;6.560;2022-12-26T07:10:35;15.10;72.20
20091;DHT22;10205;49.678;6.560;2022-12-26T07:13:02;15.10;72.40
20091;DHT22;10205;49.678;6.560;2022-12-26T07:15:30;15.10;72.30
20091;DHT22;10205;49.678;6.560;2022-12-26T07:17:57;15.10;72.50
20091;DHT22;10205;49.678;6.560;2022-12-26T07:20:24;15.10;72.50
20091;DHT22;10205;49.678;6.560;2022-12-26T07:22:53;15.10;72.50
20091;DHT22;10205;49.678;6.560;2022-12-26T07:25:20;15.00;72.50
20091;DHT22;10205;49.678;6.560;2022-12-26T07:27:51;15.00;72.60
20091;DHT22;10205;49.678;6.560;2022-12-26T07:30:19;15.00;72.60
20091;DHT22;10205;49.678;6.560;2022-12-26T07:32:46;15.00;72.60
20091;DHT22;10205;49.678;6.560;2022-12-26T07:35:17;15.00;72.50
20091;DHT22;10205;49.678;6.560;2022-12-26T07:37:44;15.00;72.60
20091;DHT22;10205;49.678;6.560;2022-12-26T07:40:12;15.00;72.70
20091;DHT22;10205;49.678;6.560;2022-12-26T07:42:39;15.00;72.70
20091;DHT22;10205;49.678;6.560;2022-12-26T07:45:08;15.00;72.70
20091;DHT22;10205;49.678;6.560;2022-12-26T07:47:35;15.00;72.70
20091;DHT22;10205;49.678;6.560;2022-12-26T07:50:04;15.00;72.70
20091;DHT22;10205;49.678;6.560;2022-12-26T07:52:31;14.90;72.70
20091;DHT22;10205;49.678;6.560;2022-12-26T07:54:58;14.90;72.70
20091;DHT22;10205;49.678;6.560;2022-12-26T07:57:25;14.90;72.60
20091;DHT22;10205;49.678;6.560;2022-12-26T07:59:52;14.90;72.60
20091;DHT22;10205;49.678;6.560;2022-12-26T08:02:21;14.90;72.70
20091;DHT22;10205;49.678;6.560;2022-12-26T08:04:48;14.90;72.80
20091;DHT22;10205;49.678;6.560;2022-12-26T08:07:15;14.90;72.80
20091;DHT22;10205;49.678;6.560;2022-12-26T08:09:44;14.90;72.90
20091;DHT22;10205;49.678;6.560;2022-12-26T08:12:11;14.90;72.90
20091;DHT22;10205;49.678;6.560;2022-12-26T08:14:38;14.90;73.00
20091;DHT22;10205;49.678;6.560;2022-12-26T08:17:07;14.90;73.00
20091;DHT22;10205;49.678;6.560;2022-12-26T08:19:36;14.90;73.00
20091;DHT22;10205;49.678;6.560;2022-12-26T08:22:03;14.90;73.00
20091;DHT22;10205;49.678;6.560;2022-12-26T08:24:33;14.90;73.00
20091;DHT22;10205;49.678;6.560;2022-12-26T08:27:00;14.90;73.00
20091;DHT22;10205;49.678;6.560;2022-12-26T08:29:27;14.90;73.00
20091;DHT22;10205;49.678;6.560;2022-12-26T08:31:54;14.90;73.30
20091;DHT22;10205;49.678;6.560;2022-12-26T08:34:21;14.90;73.30
20091;DHT22;10205;49.678;6.560;2022-12-26T08:36:50;14.90;73.30
20091;DHT22;10205;49.678;6.560;2022-12-26T08:39:18;14.90;73.30
20091;DHT22;10205;49.678;6.560;2022-12-26T08:41:46;14.80;73.30
20091;DHT22;10205;49.678;6.560;2022-12-26T08:44:18;14.80;73.40
20091;DHT22;10205;49.678;6.560;2022-12-26T08:46:45;14.80;73.50
20091;DHT22;10205;49.678;6.560;2022-12-26T08:49:13;14.80;73.40
20091;DHT22;10205;49.678;6.560;2022-12-26T08:51:40;14.80;74.20
20091;DHT22;10205;49.678;6.560;2022-12-26T08:54:08;14.80;73.40
20091;DHT22;10205;49.678;6.560;2022-12-26T08:56:36;14.80;73.50
20091;DHT22;10205;49.678;6.560;2022-12-26T08:59:03;14.80;73.50
20091;DHT22;10205;49.678;6.560;2022-12-26T09:01:31;14.80;73.40
20091;DHT22;10205;49.678;6.560;2022-12-26T09:03:59;14.80;73.40
20091;DHT22;10205;49.678;6.560;2022-12-26T09:06:31;14.80;73.60
20091;DHT22;10205;49.678;6.560;2022-12-26T09:09:00;14.80;73.60
20091;DHT22;10205;49.678;6.560;2022-12-26T09:11:31;14.80;73.40
20091;DHT22;10205;49.678;6.560;2022-12-26T09:13:59;14.80;73.60
20091;DHT22;10205;49.678;6.560;2022-12-26T09:16:29;14.80;73.60
20091;DHT22;10205;49.678;6.560;2022-12-26T09:19:00;14.80;73.60
20091;DHT22;10205;49.678;6.560;2022-12-26T09:21:29;14.80;73.60
20091;DHT22;10205;49.678;6.560;2022-12-26T09:23:57;14.80;73.60
20091;DHT22;10205;49.678;6.560;2022-12-26T09:26:25;14.80;73.60
20091;DHT22;10205;49.678;6.560;2022-12-26T09:28:57;14.90;73.70
20091;DHT22;10205;49.678;6.560;2022-12-26T09:31:26;14.90;73.80
20091;DHT22;10205;49.678;6.560;2022-12-26T09:33:55;14.90;73.80
20091;DHT22;10205;49.678;6.560;2022-12-26T09:36:24;14.90;73.70
20091;DHT22;10205;49.678;6.560;2022-12-26T09:38:54;14.90;73.70
20091;DHT22;10205;49.678;6.560;2022-12-26T09:41:37;14.90;73.60
20091;DHT22;10205;49.678;6.560;2022-12-26T09:44:34;14.90;73.70
20091;DHT22;10205;49.678;6.560;2022-12-26T09:47:25;14.90;73.50
20091;DHT22;10205;49.678;6.560;2022-12-26T09:49:59;14.90;73.80
20091;DHT22;10205;49.678;6.560;2022-12-26T09:52:37;15.00;73.70
20091;DHT22;10205;49.678;6.560;2022-12-26T09:55:23;15.00;73.60
20091;DHT22;10205;49.678;6.560;2022-12-26T09:57:58;15.00;73.60
20091;DHT22;10205;49.678;6.560;2022-12-26T10:00:38;15.00;73.40
20091;DHT22;10205;49.678;6.560;2022-12-26T10:03:11;15.00;73.20
20091;DHT22;10205;49.678;6.560;2022-12-26T10:05:44;15.00;73.10
20091;DHT22;10205;49.678;6.560;2022-12-26T10:08:30;15.00;73.10
20091;DHT22;10205;49.678;6.560;2022-12-26T10:11:15;15.10;72.90
20091;DHT22;10205;49.678;6.560;2022-12-26T10:14:00;15.10;72.90
20091;DHT22;10205;49.678;6.560;2022-12-26T10:16:48;15.10;72.80
20091;DHT22;10205;49.678;6.560;2022-12-26T10:19:42;15.10;72.40
20091;DHT22;10205;49.678;6.560;2022-12-26T10:22:53;15.10;72.10
20091;DHT22;10205;49.678;6.560;2022-12-26T10:25:39;15.10;72.30
20091;DHT22;10205;49.678;6.560;2022-12-26T10:28:16;15.10;72.30
20091;DHT22;10205;49.678;6.560;2022-12-26T10:30:48;15.10;72.30
20091;DHT22;10205;49.678;6.560;2022-12-26T10:33:23;15.10;72.30
20091;DHT22;10205;49.678;6.560;2022-12-26T10:36:00;15.10;72.30
20091;DHT22;10205;49.678;6.560;2022-12-26T10:38:31;15.20;72.30
20091;DHT22;10205;49.678;6.560;2022-12-26T10:41:06;15.20;72.30
20091;DHT22;10205;49.678;6.560;2022-12-26T10:43:37;15.20;72.50
20091;DHT22;10205;49.678;6.560;2022-12-26T10:46:47;15.20;72.30
20091;DHT22;10205;49.678;6.560;2022-12-26T10:49:32;15.20;72.00
20091;DHT22;10205;49.678;6.560;2022-12-26T10:52:01;15.20;71.80
20091;DHT22;10205;49.678;6.560;2022-12-26T10:54:29;15.20;71.70
20091;DHT22;10205;49.678;6.560;2022-12-26T10:56:58;15.20;71.80
20091;DHT22;10205;49.678;6.560;2022-12-26T10:59:36;15.30;71.80
20091;DHT22;10205;49.678;6.560;2022-12-26T11:02:24;15.20;71.50
20091;DHT22;10205;49.678;6.560;2022-12-26T11:05:00;15.20;71.10
20091;DHT22;10205;49.678;6.560;2022-12-26T11:07:35;15.20;71.20
20091;DHT22;10205;49.678;6.560;2022-12-26T11:10:12;15.30;71.40
20091;DHT22;10205;49.678;6.560;2022-12-26T11:12:46;15.30;71.40
20091;DHT22;10205;49.678;6.560;2022-12-26T11:15:22;15.30;71.40
20091;DHT22;10205;49.678;6.560;2022-12-26T11:18:07;15.30;71.40
20091;DHT22;10205;49.678;6.560;2022-12-26T11:20:45;15.30;71.30
20091;DHT22;10205;49.678;6.560;2022-12-26T11:23:21;15.30;71.40
20091;DHT22;10205;49.678;6.560;2022-12-26T11:25:51;15.30;71.40
20091;DHT22;10205;49.678;6.560;2022-12-26T11:28:25;15.30;71.50
20091;DHT22;10205;49.678;6.560;2022-12-26T11:30:56;15.30;71.20
20091;DHT22;10205;49.678;6.560;2022-12-26T11:33:30;15.30;71.20
20091;DHT22;10205;49.678;6.560;2022-12-26T11:36:17;15.30;71.30
20091;DHT22;10205;49.678;6.560;2022-12-26T11:38:51;15.30;71.10
20091;DHT22;10205;49.678;6.560;2022-12-26T11:41:33;15.30;71.10
20091;DHT22;10205;49.678;6.560;2022-12-26T11:44:21;15.30;71.00
20091;DHT22;10205;49.678;6.560;2022-12-26T11:46:54;15.30;70.90
20091;DHT22;10205;49.678;6.560;2022-12-26T11:49:27;15.40;71.10
20091;DHT22;10205;49.678;6.560;2022-12-26T11:52:00;15.40;71.00
20091;DHT22;10205;49.678;6.560;2022-12-26T11:54:33;15.40;70.90
20091;DHT22;10205;49.678;6.560;2022-12-26T11:57:15;15.30;70.70
20091;DHT22;10205;49.678;6.560;2022-12-26T11:59:45;15.40;70.40
20091;DHT22;10205;49.678;6.560;2022-12-26T12:02:24;15.40;70.60
20091;DHT22;10205;49.678;6.560;2022-12-26T12:04:57;15.40;70.40
20091;DHT22;10205;49.678;6.560;2022-12-26T12:07:49;15.40;70.30
20091;DHT22;10205;49.678;6.560;2022-12-26T12:10:48;15.40;70.10
20091;DHT22;10205;49.678;6.560;2022-12-26T12:13:41;15.40;70.10
20091;DHT22;10205;49.678;6.560;2022-12-26T12:16:33;15.40;70.10
20091;DHT22;10205;49.678;6.560;2022-12-26T12:19:19;15.50;69.50
20091;DHT22;10205;49.678;6.560;2022-12-26T12:22:20;15.50;70.00
20091;DHT22;10205;49.678;6.560;2022-12-26T12:28:01;15.50;69.20
20091;DHT22;10205;49.678;6.560;2022-12-26T12:30:43;15.50;69.50
20091;DHT22;10205;49.678;6.560;2022-12-26T12:33:25;15.50;69.20
20091;DHT22;10205;49.678;6.560;2022-12-26T12:36:07;15.50;69.20
20091;DHT22;10205;49.678;6.560;2022-12-26T12:38:56;15.50;70.30
20091;DHT22;10205;49.678;6.560;2022-12-26T12:41:59;15.50;69.40
20091;DHT22;10205;49.678;6.560;2022-12-26T12:44:56;15.50;68.70
20091;DHT22;10205;49.678;6.560;2022-12-26T12:47:40;15.50;68.90
20091;DHT22;10205;49.678;6.560;2022-12-26T12:50:20;15.50;68.70
20091;DHT22;10205;49.678;6.560;2022-12-26T12:52:59;15.50;68.60
20091;DHT22;10205;49.678;6.560;2022-12-26T12:55:45;15.50;68.60
20091;DHT22;10205;49.678;6.560;2022-12-26T12:58:29;15.50;68.60
20091;DHT22;10205;49.678;6.560;2022-12-26T13:01:08;15.60;68.70
20091;DHT22;10205;49.678;6.560;2022-12-26T13:03:42;15.60;69.00
20091;DHT22;10205;49.678;6.560;2022-12-26T13:06:16;15.60;68.50
20091;DHT22;10205;49.678;6.560;2022-12-26T13:08:50;15.60;68.80
20091;DHT22;10205;49.678;6.560;2022-12-26T13:11:24;15.60;68.60
20091;DHT22;10205;49.678;6.560;2022-12-26T13:14:00;15.60;68.40
20091;DHT22;10205;49.678;6.560;2022-12-26T13:16:37;15.60;68.10
20091;DHT22;10205;49.678;6.560;2022-12-26T13:19:16;15.60;68.30
20091;DHT22;10205;49.678;6.560;2022-12-26T13:21:49;15.60;68.20
20091;DHT22;10205;49.678;6.560;2022-12-26T13:24:27;15.60;68.00
20091;DHT22;10205;49.678;6.560;2022-12-26T13:27:00;15.60;67.90
20091;DHT22;10205;49.678;6.560;2022-12-26T13:29:39;15.60;68.00
20091;DHT22;10205;49.678;6.560;2022-12-26T13:32:16;15.60;67.60
20091;DHT22;10205;49.678;6.560;2022-12-26T13:34:48;15.60;67.10
20091;DHT22;10205;49.678;6.560;2022-12-26T13:40:21;15.60;67.50
20091;DHT22;10205;49.678;6.560;2022-12-26T13:42:54;15.60;67.80
20091;DHT22;10205;49.678;6.560;2022-12-26T13:45:54;15.60;67.80
20091;DHT22;10205;49.678;6.560;2022-12-26T13:51:52;15.60;67.20
20091;DHT22;10205;49.678;6.560;2022-12-26T13:54:21;15.60;67.50
20091;DHT22;10205;49.678;6.560;2022-12-26T14:00:21;15.60;66.60
20091;DHT22;10205;49.678;6.560;2022-12-26T14:09:21;15.60;67.00
20091;DHT22;10205;49.678;6.560;2022-12-26T14:18:11;15.60;67.40
20091;DHT22;10205;49.678;6.560;2022-12-26T14:20:53;15.60;67.10
20091;DHT22;10205;49.678;6.560;2022-12-26T14:23:43;15.60;67.00
20091;DHT22;10205;49.678;6.560;2022-12-26T14:26:25;15.60;67.40
20091;DHT22;10205;49.678;6.560;2022-12-26T14:29:07;15.60;67.00
20091;DHT22;10205;49.678;6.560;2022-12-26T14:31:52;15.60;67.20
20091;DHT22;10205;49.678;6.560;2022-12-26T14:34:40;15.60;67.30
20091;DHT22;10205;49.678;6.560;2022-12-26T14:37:21;15.50;67.40
20091;DHT22;10205;49.678;6.560;2022-12-26T14:40:05;15.50;67.60
20091;DHT22;10205;49.678;6.560;2022-12-26T14:46:52;15.50;66.80
20091;DHT22;10205;49.678;6.560;2022-12-26T14:49:21;15.50;67.40
20091;DHT22;10205;49.678;6.560;2022-12-26T14:51:50;15.50;66.50
20091;DHT22;10205;49.678;6.560;2022-12-26T14:54:37;15.50;67.40
20091;DHT22;10205;49.678;6.560;2022-12-26T15:00:33;15.50;67.60
20091;DHT22;10205;49.678;6.560;2022-12-26T15:03:43;15.50;67.70
20091;DHT22;10205;49.678;6.560;2022-12-26T15:16:55;15.40;67.70
20091;DHT22;10205;49.678;6.560;2022-12-26T15:20:10;15.40;67.60
20091;DHT22;10205;49.678;6.560;2022-12-26T15:23:29;15.20;68.60
20091;DHT22;10205;49.678;6.560;2022-12-26T15:29:52;15.00;67.90
20091;DHT22;10205;49.678;6.560;2022-12-26T15:32:42;14.90;68.10
20091;DHT22;10205;49.678;6.560;2022-12-26T15:35:21;14.80;68.10
20091;DHT22;10205;49.678;6.560;2022-12-26T15:38:19;14.80;68.10
20091;DHT22;10205;49.678;6.560;2022-12-26T15:40:54;14.70;67.80
20091;DHT22;10205;49.678;6.560;2022-12-26T15:43:56;14.60;67.90
20091;DHT22;10205;49.678;6.560;2022-12-26T15:46:35;14.50;67.70
20091;DHT22;10205;49.678;6.560;2022-12-26T15:49:26;14.40;69.40
20091;DHT22;10205;49.678;6.560;2022-12-26T15:52:10;14.30;69.60
20091;DHT22;10205;49.678;6.560;2022-12-26T15:55:01;14.20;69.50
20091;DHT22;10205;49.678;6.560;2022-12-26T15:57:58;14.10;70.40
20091;DHT22;10205;49.678;6.560;2022-12-26T16:00:47;14.00;71.10
20091;DHT22;10205;49.678;6.560;2022-12-26T16:03:27;13.90;72.00
20091;DHT22;10205;49.678;6.560;2022-12-26T16:06:07;13.90;72.10
20091;DHT22;10205;49.678;6.560;2022-12-26T16:09:01;13.90;72.20
20091;DHT22;10205;49.678;6.560;2022-12-26T16:11:48;13.90;71.60
20091;DHT22;10205;49.678;6.560;2022-12-26T16:14:37;13.90;71.50
20091;DHT22;10205;49.678;6.560;2022-12-26T16:17:19;13.90;71.30
20091;DHT22;10205;49.678;6.560;2022-12-26T16:19:50;13.90;71.30
20091;DHT22;10205;49.678;6.560;2022-12-26T16:22:24;13.90;71.00
20091;DHT22;10205;49.678;6.560;2022-12-26T16:25:13;13.90;71.20
20091;DHT22;10205;49.678;6.560;2022-12-26T16:27:43;13.90;70.80
20091;DHT22;10205;49.678;6.560;2022-12-26T16:30:14;13.90;70.50
20091;DHT22;10205;49.678;6.560;2022-12-26T16:32:45;13.90;70.30
20091;DHT22;10205;49.678;6.560;2022-12-26T16:35:31;13.90;70.40
20091;DHT22;10205;49.678;6.560;2022-12-26T16:38:01;13.90;70.40
20091;DHT22;10205;49.678;6.560;2022-12-26T16:40:32;13.90;70.50
20091;DHT22;10205;49.678;6.560;2022-12-26T16:43:02;13.90;70.00
20091;DHT22;10205;49.678;6.560;2022-12-26T16:45:37;13.90;69.90
20091;DHT22;10205;49.678;6.560;2022-12-26T16:48:07;13.80;71.10
20091;DHT22;10205;49.678;6.560;2022-12-26T16:50:45;13.80;70.00
20091;DHT22;10205;49.678;6.560;2022-12-26T16:53:15;13.80;69.80
20091;DHT22;10205;49.678;6.560;2022-12-26T16:55:45;13.80;70.30
20091;DHT22;10205;49.678;6.560;2022-12-26T16:58:18;13.80;70.40
20091;DHT22;10205;49.678;6.560;2022-12-26T17:01:02;13.80;70.40
20091;DHT22;10205;49.678;6.560;2022-12-26T17:03:47;13.80;70.50
20091;DHT22;10205;49.678;6.560;2022-12-26T17:06:23;13.80;70.40
20091;DHT22;10205;49.678;6.560;2022-12-26T17:08:52;13.80;70.70
20091;DHT22;10205;49.678;6.560;2022-12-26T17:11:29;13.80;70.10
20091;DHT22;10205;49.678;6.560;2022-12-26T17:14:00;13.70;69.80
20091;DHT22;10205;49.678;6.560;2022-12-26T17:16:29;13.80;70.40
20091;DHT22;10205;49.678;6.560;2022-12-26T17:19:09;13.70;69.80